Time;durP1;ratioP1;P1;durP2;ratioP2;P2;SDS_P1;SDS_P2;PMS_P1;PMS_P2;Temp;Humidity;BMP_temperature;BMP_pressure;BME280_temperature;BME280_humidity;BME280_pressure;Samples;Min_cycle;Max_cycle;Signal;HPM_P1;HPM_P2
2022/03/13 00:00:50;;;;;;;11.60;8.73;;;;;;;-0.68;61.87;100821.34;5115431;28;20940;-73
2022/03/13 00:03:19;;;;;;;11.50;8.57;;;;;;;-0.72;62.54;100817.25;5115550;28;20420;-74
2022/03/13 00:05:48;;;;;;;9.87;8.87;;;;;;;-0.72;62.79;100812.03;5116315;28;20510;-74
2022/03/13 00:08:23;;;;;;;10.07;9.07;;;;;;;-0.69;63.20;100801.41;5115455;28;20435;-73
2022/03/13 00:10:56;;;;;;;14.10;9.27;;;;;;;-0.76;63.64;100813.16;5115805;28;20431;-73
2022/03/13 00:13:30;;;;;;;10.90;9.90;;;;;;;-0.84;63.78;100805.78;5116332;28;20559;-73
2022/03/13 00:15:57;;;;;;;10.90;9.67;;;;;;;-0.95;64.63;100796.91;5116424;28;20861;-73
2022/03/13 00:18:24;;;;;;;10.87;9.40;;;;;;;-1.07;63.90;100797.66;5115971;28;20464;-74
2022/03/13 00:20:51;;;;;;;12.17;9.63;;;;;;;-1.14;64.33;100796.34;5115306;28;20502;-73
2022/03/13 00:23:20;;;;;;;11.87;8.50;;;;;;;-1.18;64.97;100792.25;5116218;28;20448;-74
2022/03/13 00:25:47;;;;;;;10.40;8.97;;;;;;;-1.17;65.13;100791.31;5115348;28;20439;-73
2022/03/13 00:28:14;;;;;;;9.73;8.73;;;;;;;-1.21;65.16;100779.41;5115206;28;20440;-73
2022/03/13 00:30:40;;;;;;;13.83;9.63;;;;;;;-1.22;65.92;100781.16;5115361;27;20517;-73
2022/03/13 00:33:07;;;;;;;15.00;10.20;;;;;;;-1.20;66.01;100775.84;5115093;28;20947;-73
2022/03/13 00:35:34;;;;;;;13.37;9.23;;;;;;;-1.09;64.88;100781.28;5115893;28;20930;-73
2022/03/13 00:38:01;;;;;;;10.27;9.13;;;;;;;-1.19;65.03;100777.53;5115287;28;20440;-74
2022/03/13 00:40:30;;;;;;;11.87;9.70;;;;;;;-1.13;65.58;100777.19;5114786;28;20472;-74
2022/03/13 00:42:57;;;;;;;10.37;9.33;;;;;;;-0.97;65.06;100778.75;5115212;28;20432;-74
2022/03/13 00:45:23;;;;;;;10.27;8.37;;;;;;;-0.94;64.50;100777.75;5114116;28;20448;-73
2022/03/13 00:47:50;;;;;;;18.90;9.23;;;;;;;-0.88;64.17;100782.59;5115194;28;20432;-74
2022/03/13 00:50:17;;;;;;;11.70;9.60;;;;;;;-0.89;64.53;100778.31;5115132;28;20494;-74
2022/03/13 00:52:44;;;;;;;14.07;9.97;;;;;;;-0.79;64.38;100782.03;5115201;27;20497;-74
2022/03/13 00:55:11;;;;;;;13.47;10.13;;;;;;;-0.71;63.93;100779.78;5115601;28;20476;-74
2022/03/13 00:57:42;;;;;;;10.77;9.67;;;;;;;-0.59;63.81;100779.03;5115151;28;20523;-74
2022/03/13 01:00:10;;;;;;;10.50;9.37;;;;;;;-0.49;63.55;100786.19;5115639;28;20428;-74
2022/03/13 01:02:38;;;;;;;8.83;7.97;;;;;;;-0.41;63.17;100788.31;5114968;27;20535;-74
2022/03/13 01:05:05;;;;;;;9.37;8.43;;;;;;;-0.41;62.92;100777.88;5114761;28;20991;-73
2022/03/13 01:07:32;;;;;;;8.67;7.90;;;;;;;-0.36;62.71;100774.06;5114894;28;20441;-74
2022/03/13 01:09:58;;;;;;;9.30;8.40;;;;;;;-0.31;62.42;100776.41;5114810;28;20440;-73
2022/03/13 01:12:25;;;;;;;8.90;8.03;;;;;;;-0.28;62.07;100778.81;5114511;27;20931;-74
2022/03/13 01:14:53;;;;;;;8.33;7.53;;;;;;;-0.26;61.79;100777.78;5114728;28;20479;-73
2022/03/13 01:17:20;;;;;;;8.47;7.73;;;;;;;-0.27;61.80;100780.50;5114411;28;20493;-73
2022/03/13 01:19:47;;;;;;;8.30;7.57;;;;;;;-0.28;61.71;100776.22;5114336;28;20451;-73
2022/03/13 01:22:14;;;;;;;12.23;9.03;;;;;;;-0.30;61.83;100775.47;5114271;28;20943;-72
2022/03/13 01:24:44;;;;;;;10.53;8.67;;;;;;;-0.24;61.28;100782.91;5114556;28;20440;-73
2022/03/13 01:27:12;;;;;;;11.07;8.80;;;;;;;-0.26;61.72;100774.34;5115804;28;20916;-73
2022/03/13 01:29:39;;;;;;;10.40;8.73;;;;;;;-0.28;61.32;100776.22;5114375;28;20489;-73
2022/03/13 01:32:12;;;;;;;9.33;8.37;;;;;;;-0.31;61.65;100773.78;5114437;28;20440;-73
2022/03/13 01:34:45;;;;;;;9.70;8.80;;;;;;;-0.43;60.81;100775.41;5114040;28;20463;-74
2022/03/13 01:37:20;;;;;;;9.63;8.73;;;;;;;-0.50;60.77;100778.47;5114055;28;20988;-73
2022/03/13 01:39:48;;;;;;;10.10;9.07;;;;;;;-0.57;60.94;100778.00;5114577;27;20515;-73
2022/03/13 01:42:15;;;;;;;8.97;8.00;;;;;;;-0.59;61.40;100768.59;5115161;28;20501;-73
2022/03/13 01:44:42;;;;;;;9.47;8.10;;;;;;;-0.57;61.43;100785.03;5113823;28;20504;-73
2022/03/13 01:47:10;;;;;;;9.83;8.83;;;;;;;-0.64;61.48;100775.88;5113780;28;20444;-73
2022/03/13 01:49:37;;;;;;;10.53;9.60;;;;;;;-0.80;62.32;100776.00;5114069;28;20485;-73
2022/03/13 01:52:04;;;;;;;10.17;9.17;;;;;;;-0.85;62.09;100769.38;5090318;28;20450;-73
2022/03/13 01:54:31;;;;;;;10.50;9.43;;;;;;;-0.94;62.23;100777.75;5074072;28;20470;-73
2022/03/13 01:56:59;;;;;;;16.50;9.53;;;;;;;-1.17;62.55;100740.03;5072312;28;20522;-73
2022/03/13 01:59:28;;;;;;;15.47;8.50;;;;;;;-1.02;64.14;100772.16;5073116;28;21011;-73
2022/03/13 02:01:56;;;;;;;9.03;8.23;;;;;;;-1.04;64.13;100771.41;5072786;28;20954;-72
2022/03/13 02:04:27;;;;;;;10.17;9.17;;;;;;;-1.01;64.31;100773.84;5073023;28;20547;-73
2022/03/13 02:06:55;;;;;;;9.73;8.87;;;;;;;-0.96;63.94;100774.38;5073431;28;20436;-73
2022/03/13 02:09:22;;;;;;;11.00;9.37;;;;;;;-0.93;63.51;100775.03;5073056;28;20951;-73
2022/03/13 02:11:51;;;;;;;12.60;10.77;;;;;;;-0.98;63.57;100765.84;5073081;28;20495;-72
2022/03/13 02:14:21;;;;;;;11.53;10.23;;;;;;;-0.99;63.84;100769.34;5072649;28;20473;-73
2022/03/13 02:16:48;;;;;;;14.63;11.17;;;;;;;-0.99;64.15;100758.94;5072601;28;20449;-72
2022/03/13 02:19:16;;;;;;;13.70;10.37;;;;;;;-1.03;64.57;100762.66;5072519;28;21018;-72
2022/03/13 02:21:48;;;;;;;11.83;9.80;;;;;;;-1.06;64.35;100765.47;5072558;28;20998;-72
2022/03/13 02:24:17;;;;;;;11.17;9.80;;;;;;;-1.07;64.47;100761.16;5072453;28;20487;-72
2022/03/13 02:26:47;;;;;;;10.17;9.03;;;;;;;-1.19;64.40;100756.66;5073569;28;20490;-73
2022/03/13 02:29:16;;;;;;;11.43;10.30;;;;;;;-1.34;65.35;100749.78;5073500;28;20438;-73
2022/03/13 02:31:43;;;;;;;13.13;9.23;;;;;;;-1.44;65.29;100752.09;5072703;28;20434;-73
2022/03/13 02:34:12;;;;;;;13.30;9.07;;;;;;;-1.51;65.89;100744.72;5072228;28;20480;-73
2022/03/13 02:36:55;;;;;;;10.63;9.43;;;;;;;-1.60;65.63;100737.41;5072581;28;20445;-73
2022/03/13 02:39:24;;;;;;;9.83;8.90;;;;;;;-1.64;65.63;100743.75;5073454;28;20499;-73
2022/03/13 02:41:51;;;;;;;9.93;8.93;;;;;;;-1.71;66.38;100737.22;5072268;28;20441;-74
2022/03/13 02:44:18;;;;;;;10.07;8.50;;;;;;;-1.74;65.88;100737.41;5072200;28;20822;-73
2022/03/13 02:46:55;;;;;;;10.03;9.03;;;;;;;-1.92;66.62;100720.25;5072168;28;20452;-74
2022/03/13 02:49:23;;;;;;;10.17;9.27;;;;;;;-1.86;66.20;100743.31;5072160;28;20491;-73
2022/03/13 02:51:52;;;;;;;8.40;7.60;;;;;;;-1.84;66.23;100746.69;5072372;28;20446;-73
2022/03/13 02:54:21;;;;;;;15.07;9.60;;;;;;;-1.83;65.68;100749.16;5072592;28;20523;-73
2022/03/13 02:56:49;;;;;;;10.33;8.80;;;;;;;-1.77;65.98;100747.97;5072039;28;20945;-73
2022/03/13 02:59:16;;;;;;;9.27;7.87;;;;;;;-1.66;65.80;100751.66;5072333;28;20430;-73
2022/03/13 03:01:43;;;;;;;9.23;8.27;;;;;;;-1.52;65.19;100758.66;5071959;28;20527;-73
2022/03/13 03:04:10;;;;;;;12.30;8.03;;;;;;;-1.48;65.23;100754.94;5071841;28;20477;-73
2022/03/13 03:06:38;;;;;;;9.37;8.40;;;;;;;-1.42;65.60;100750.22;5072516;28;20807;-73
2022/03/13 03:09:05;;;;;;;12.03;8.43;;;;;;;-1.35;65.83;100750.72;5071552;28;20534;-72
2022/03/13 03:11:33;;;;;;;9.73;8.73;;;;;;;-1.34;66.53;100752.38;5072760;28;20491;-72
2022/03/13 03:14:02;;;;;;;10.23;9.23;;;;;;;-1.22;65.73;100747.28;5072378;28;20521;-73
2022/03/13 03:16:29;;;;;;;10.20;8.87;;;;;;;-1.32;65.25;100747.91;5072152;28;20436;-71
2022/03/13 03:18:56;;;;;;;8.80;6.67;;;;;;;-1.40;65.19;100750.13;5072374;28;20461;-72
2022/03/13 03:21:23;;;;;;;7.10;6.60;;;;;;;-1.43;65.44;100745.13;5072559;28;20438;-72
2022/03/13 03:23:50;;;;;;;7.33;6.73;;;;;;;-1.35;65.46;100745.50;5071758;28;20961;-72
2022/03/13 03:26:16;;;;;;;7.37;6.67;;;;;;;-1.27;66.20;100738.03;5072353;28;20499;-72
2022/03/13 03:28:44;;;;;;;9.53;8.40;;;;;;;-1.29;65.84;100737.31;5071729;28;20442;-71
2022/03/13 03:31:13;;;;;;;8.70;7.93;;;;;;;-1.25;65.21;100744.00;5071601;28;20528;-71
2022/03/13 03:33:39;;;;;;;9.43;8.50;;;;;;;-1.30;65.71;100733.84;5071943;28;20524;-71
2022/03/13 03:36:06;;;;;;;10.80;9.60;;;;;;;-1.33;66.69;100733.22;5071465;28;20543;-73
2022/03/13 03:38:33;;;;;;;16.87;10.87;;;;;;;-1.21;66.30;100743.75;5072057;28;20503;-73
2022/03/13 03:41:00;;;;;;;10.40;9.37;;;;;;;-1.12;66.57;100727.56;5071830;28;20500;-72
2022/03/13 03:43:26;;;;;;;12.53;10.03;;;;;;;-1.09;65.93;100737.81;5071543;28;20496;-72
2022/03/13 03:45:56;;;;;;;15.50;10.27;;;;;;;-1.14;65.95;100726.78;5071755;28;20810;-72
2022/03/13 03:48:24;;;;;;;15.07;12.10;;;;;;;-1.17;67.28;100723.53;5071521;28;20503;-73
2022/03/13 03:50:50;;;;;;;15.13;11.43;;;;;;;-1.37;67.86;100716.94;5072099;28;20442;-73
2022/03/13 03:53:17;;;;;;;17.80;12.40;;;;;;;-1.50;68.43;100717.75;5071402;28;21015;-73
2022/03/13 03:55:44;;;;;;;13.83;9.70;;;;;;;-1.57;68.43;100719.00;5072579;28;20531;-72
2022/03/13 03:58:10;;;;;;;18.93;11.63;;;;;;;-1.62;69.30;100716.69;5072309;28;20438;-73
2022/03/13 04:00:37;;;;;;;12.67;10.30;;;;;;;-1.69;69.43;100717.13;5071653;28;20442;-72
2022/03/13 04:03:04;;;;;;;14.43;10.10;;;;;;;-1.74;69.40;100721.78;5071398;28;20567;-72
2022/03/13 04:05:32;;;;;;;17.63;12.03;;;;;;;-1.71;69.77;100722.41;5072078;28;20529;-72
2022/03/13 04:07:59;;;;;;;18.13;11.10;;;;;;;-1.71;68.90;100726.81;5072499;28;20438;-73
2022/03/13 04:10:25;;;;;;;16.40;11.10;;;;;;;-1.66;68.81;100714.34;5071877;28;20499;-73
2022/03/13 04:12:52;;;;;;;11.87;10.60;;;;;;;-1.52;68.18;100716.97;5071318;28;20810;-73
2022/03/13 04:15:19;;;;;;;11.80;9.67;;;;;;;-1.40;68.06;100716.25;5071678;28;20477;-73
2022/03/13 04:17:45;;;;;;;17.47;10.80;;;;;;;-1.26;68.20;100721.50;5071786;28;20495;-73
2022/03/13 04:20:12;;;;;;;11.30;9.67;;;;;;;-1.28;67.38;100726.78;5072715;28;20491;-73
2022/03/13 04:22:40;;;;;;;13.57;10.77;;;;;;;-1.27;67.10;100727.63;5074743;28;20940;-72
2022/03/13 04:25:07;;;;;;;22.50;10.83;;;;;;;-1.15;65.99;100726.88;5074736;28;20491;-73
2022/03/13 04:27:35;;;;;;;14.43;9.93;;;;;;;-1.04;66.48;100725.31;5074802;28;20508;-73
2022/03/13 04:30:02;;;;;;;13.57;10.53;;;;;;;-0.96;65.95;100730.06;5075233;28;20444;-72
2022/03/13 04:32:29;;;;;;;18.30;12.10;;;;;;;-0.89;65.28;100733.97;5075245;28;20542;-73
2022/03/13 04:34:56;;;;;;;11.87;10.33;;;;;;;-0.86;64.82;100731.19;5074837;28;20477;-73
2022/03/13 04:37:23;;;;;;;14.43;10.83;;;;;;;-0.96;65.23;100728.31;5074552;28;20496;-73
2022/03/13 04:39:51;;;;;;;13.27;9.97;;;;;;;-1.02;65.35;100727.84;5074694;28;20434;-73
2022/03/13 04:42:18;;;;;;;15.27;10.73;;;;;;;-0.97;65.54;100729.22;5074402;28;20438;-72
2022/03/13 04:44:46;;;;;;;18.77;11.10;;;;;;;-0.88;66.07;100730.44;5074708;28;20500;-72
2022/03/13 04:47:12;;;;;;;21.93;11.93;;;;;;;-0.82;65.14;100735.25;5074841;28;20524;-72
2022/03/13 04:49:39;;;;;;;20.63;12.90;;;;;;;-0.75;64.95;100740.03;5074245;28;20499;-72
2022/03/13 04:52:07;;;;;;;24.77;12.77;;;;;;;-0.70;64.97;100755.38;5074333;28;20485;-72
2022/03/13 04:54:33;;;;;;;16.20;12.07;;;;;;;-0.67;64.96;100748.22;5074490;28;20442;-72
2022/03/13 04:57:01;;;;;;;17.93;12.30;;;;;;;-0.60;64.09;100753.91;5074506;28;20430;-72
2022/03/13 04:59:28;;;;;;;15.13;11.03;;;;;;;-0.57;64.16;100746.69;5074131;28;20442;-72
2022/03/13 05:01:55;;;;;;;15.30;11.97;;;;;;;-0.48;63.73;100745.31;5074349;28;20865;-73
2022/03/13 05:04:21;;;;;;;19.30;11.57;;;;;;;-0.43;63.58;100740.63;5074289;28;20473;-73
2022/03/13 05:06:48;;;;;;;17.23;12.10;;;;;;;-0.44;62.88;100745.00;5074132;28;20849;-73
2022/03/13 05:09:15;;;;;;;18.50;12.80;;;;;;;-0.48;63.99;100745.31;5074115;28;20512;-72
2022/03/13 05:11:41;;;;;;;20.77;11.77;;;;;;;-0.42;63.93;100744.91;5073742;28;20503;-72
2022/03/13 05:14:10;;;;;;;16.17;11.57;;;;;;;-0.34;63.58;100747.88;5074442;28;20507;-72
2022/03/13 05:16:36;;;;;;;16.37;12.17;;;;;;;-0.30;63.27;100739.75;5073740;28;20486;-72
2022/03/13 05:19:06;;;;;;;16.27;11.90;;;;;;;-0.22;63.79;100736.66;5073827;28;20438;-72
2022/03/13 05:21:34;;;;;;;18.43;12.97;;;;;;;-0.17;63.60;100735.44;5073925;28;20441;-72
2022/03/13 05:24:01;;;;;;;16.33;12.30;;;;;;;-0.15;62.97;100737.94;5073593;28;20437;-72
2022/03/13 05:26:28;;;;;;;17.57;13.20;;;;;;;-0.07;63.27;100740.91;5074648;28;20450;-72
2022/03/13 05:28:55;;;;;;;16.00;11.23;;;;;;;-0.05;62.73;100745.09;5073461;28;20438;-72
2022/03/13 05:31:23;;;;;;;20.23;12.47;;;;;;;-0.03;62.61;100745.00;5073619;28;20438;-73
2022/03/13 05:33:50;;;;;;;22.47;14.47;;;;;;;0.02;61.76;100742.91;5073347;28;20444;-72
2022/03/13 05:36:17;;;;;;;18.30;12.57;;;;;;;0.04;62.70;100733.19;5073304;28;21062;-72
2022/03/13 05:38:43;;;;;;;19.53;11.90;;;;;;;0.20;62.21;100749.53;5073884;28;20449;-72
2022/03/13 05:41:10;;;;;;;18.43;12.47;;;;;;;0.27;60.90;100750.84;5073602;28;20479;-71
2022/03/13 05:43:40;;;;;;;18.80;13.20;;;;;;;0.45;60.56;100754.84;5074239;28;20442;-71
2022/03/13 05:46:07;;;;;;;25.47;15.47;;;;;;;0.55;60.09;100755.91;5073994;28;20442;-72
2022/03/13 05:48:35;;;;;;;22.47;14.60;;;;;;;0.70;60.75;100754.06;5073614;28;20436;-72
2022/03/13 05:51:02;;;;;;;20.27;14.50;;;;;;;1.05;58.99;100745.47;5073342;28;20527;-72
2022/03/13 05:53:28;;;;;;;21.93;14.07;;;;;;;1.30;58.17;100753.31;5072971;28;20507;-72
2022/03/13 05:55:55;;;;;;;26.40;15.10;;;;;;;1.46;56.76;100758.31;5073735;28;20504;-72
2022/03/13 05:58:22;;;;;;;27.93;15.70;;;;;;;1.45;57.26;100754.00;5072930;28;20938;-73
2022/03/13 06:01:05;;;;;;;22.77;14.70;;;;;;;1.53;56.48;100757.78;5073157;28;20434;-72
2022/03/13 06:03:32;;;;;;;18.23;14.17;;;;;;;2.12;55.56;100759.56;5074044;28;20516;-73
2022/03/13 06:06:02;;;;;;;18.23;13.60;;;;;;;2.59;53.25;100761.28;5073220;28;20538;-73
2022/03/13 06:08:29;;;;;;;16.73;13.37;;;;;;;3.24;51.49;100765.00;5073173;28;20434;-72
2022/03/13 06:10:57;;;;;;;15.90;12.40;;;;;;;3.51;48.19;100768.13;5073955;28;20762;-73
2022/03/13 06:13:25;;;;;;;14.37;12.13;;;;;;;3.55;46.32;100761.66;5073214;28;20445;-73
2022/03/13 06:15:51;;;;;;;24.20;15.53;;;;;;;3.86;46.15;100769.63;5072766;28;20535;-73
2022/03/13 06:18:18;;;;;;;22.10;16.80;;;;;;;4.23;44.49;100757.81;5073601;28;20853;-73
2022/03/13 06:20:45;;;;;;;20.43;13.37;;;;;;;4.60;43.71;100766.97;5072452;28;20446;-73
2022/03/13 06:23:13;;;;;;;21.60;15.27;;;;;;;4.96;41.52;100761.25;5072703;28;20824;-73
2022/03/13 06:25:41;;;;;;;15.87;12.57;;;;;;;5.39;41.11;100777.69;5072762;28;20206;-73
2022/03/13 06:28:07;;;;;;;17.50;12.73;;;;;;;5.97;40.04;100767.38;5072352;28;20625;-73
2022/03/13 06:30:34;;;;;;;13.90;12.03;;;;;;;6.56;38.69;100771.59;5072607;28;20253;-73
2022/03/13 06:33:01;;;;;;;16.67;11.90;;;;;;;7.08;36.20;100768.50;5072195;28;20197;-73
2022/03/13 06:35:28;;;;;;;15.70;9.80;;;;;;;7.58;35.75;100767.19;5072607;28;20293;-74
2022/03/13 06:37:55;;;;;;;12.57;10.13;;;;;;;7.69;34.19;100764.38;5072278;28;20195;-74
2022/03/13 06:40:26;;;;;;;11.57;10.20;;;;;;;7.91;34.36;100768.41;5072129;28;20188;-73
2022/03/13 06:42:55;;;;;;;12.00;10.23;;;;;;;8.18;33.52;100776.34;5072119;28;20257;-74
2022/03/13 06:45:22;;;;;;;12.67;10.60;;;;;;;8.40;33.34;100766.19;5073171;28;20218;-76
2022/03/13 06:47:50;;;;;;;12.90;8.87;;;;;;;8.66;32.78;100776.84;5072530;28;20192;-75
2022/03/13 06:50:19;;;;;;;11.57;10.20;;;;;;;9.00;32.29;100759.22;5072381;28;20552;-77
2022/03/13 06:52:47;;;;;;;12.27;9.73;;;;;;;9.12;30.72;100768.59;5072378;28;20199;-76
2022/03/13 06:55:14;;;;;;;13.77;9.73;;;;;;;9.04;31.16;100763.22;5072289;28;20257;-78
2022/03/13 06:57:43;;;;;;;11.63;9.83;;;;;;;8.90;31.17;100763.81;5072651;28;20685;-76
2022/03/13 07:00:12;;;;;;;13.90;11.87;;;;;;;8.90;31.91;100769.09;5072209;28;20188;-74
2022/03/13 07:02:39;;;;;;;14.50;10.87;;;;;;;9.18;31.19;100760.84;5074796;28;20252;-75
2022/03/13 07:05:07;;;;;;;12.47;10.60;;;;;;;9.10;31.43;100762.59;5083939;28;20230;-75
2022/03/13 07:07:33;;;;;;;9.90;9.00;;;;;;;9.42;31.04;100758.34;5077681;28;20222;-79
2022/03/13 07:10:00;;;;;;;14.87;9.53;;;;;;;10.09;32.15;100760.94;5072280;28;20191;-75
2022/03/13 07:12:27;;;;;;;13.47;9.10;;;;;;;10.23;30.74;100757.69;5091486;28;20199;-76
2022/03/13 07:14:56;;;;;;;10.87;9.43;;;;;;;9.55;30.33;100756.06;5092458;28;20264;-75
2022/03/13 07:17:24;;;;;;;9.27;8.30;;;;;;;9.49;31.90;100755.88;5092046;28;20352;-74
2022/03/13 07:19:51;;;;;;;10.03;7.77;;;;;;;9.20;31.78;100750.91;5081669;28;20733;-73
2022/03/13 07:22:17;;;;;;;9.17;8.37;;;;;;;9.52;31.94;100747.63;5071680;28;20725;-73
2022/03/13 07:24:46;;;;;;;9.07;8.33;;;;;;;9.42;30.99;100736.28;5071707;28;20195;-75
2022/03/13 07:27:14;;;;;;;9.50;8.57;;;;;;;9.66;30.48;100744.34;5071592;28;20621;-77
2022/03/13 07:29:41;;;;;;;7.77;7.00;;;;;;;10.00;29.45;100750.44;5072256;28;20200;-77
2022/03/13 07:32:10;;;;;;;8.90;7.13;;;;;;;10.31;28.64;100748.88;5072005;28;20257;-78
2022/03/13 07:34:37;;;;;;;9.90;7.67;;;;;;;10.72;28.68;100743.44;5071597;28;20663;-77
2022/03/13 07:37:05;;;;;;;8.53;6.63;;;;;;;11.16;28.37;100743.06;5083113;28;20243;-74
2022/03/13 07:39:31;;;;;;;15.73;7.60;;;;;;;11.52;28.50;100741.63;5091950;28;20200;-76
2022/03/13 07:41:58;;;;;;;7.27;6.00;;;;;;;11.43;27.22;100743.47;5091723;28;20202;-73
2022/03/13 07:44:25;;;;;;;5.17;4.13;;;;;;;10.84;27.06;100739.47;5091429;28;20620;-73
2022/03/13 07:46:51;;;;;;;5.57;5.00;;;;;;;10.97;25.96;100736.28;5091419;28;20667;-77
2022/03/13 07:49:19;;;;;;;3.17;2.97;;;;;;;10.86;24.54;100739.25;5091806;28;20568;-78
2022/03/13 07:51:46;;;;;;;4.13;3.47;;;;;;;10.43;26.94;100694.47;5091311;28;20328;-79
2022/03/13 07:54:14;;;;;;;2.87;2.67;;;;;;;10.67;24.76;100731.66;5091835;28;20625;-76
2022/03/13 07:56:41;;;;;;;3.47;3.27;;;;;;;10.27;25.16;100734.28;5095299;28;20215;-75
2022/03/13 07:59:07;;;;;;;3.57;3.37;;;;;;;10.08;25.39;100729.25;5089145;28;20188;-74
2022/03/13 08:01:35;;;;;;;3.80;3.00;;;;;;;10.45;26.88;100725.16;5095881;28;20191;-74
2022/03/13 08:04:04;;;;;;;5.77;4.13;;;;;;;10.84;25.89;100733.31;5095181;28;20231;-75
2022/03/13 08:06:34;;;;;;;4.00;3.80;;;;;;;11.14;26.44;100729.94;5095853;28;20208;-75
2022/03/13 08:09:01;;;;;;;3.50;3.20;;;;;;;11.64;26.50;100730.47;5095261;28;20191;-75
2022/03/13 08:11:28;;;;;;;3.67;3.57;;;;;;;12.23;25.23;100732.50;5081403;28;20188;-80
2022/03/13 08:13:55;;;;;;;4.43;4.13;;;;;;;12.37;24.18;100739.72;5075339;28;20240;-74
2022/03/13 08:16:21;;;;;;;5.07;4.67;;;;;;;12.43;25.06;100722.19;5075206;28;20707;-77
2022/03/13 08:18:48;;;;;;;5.63;4.90;;;;;;;12.59;25.70;100722.91;5075276;28;20200;-82
2022/03/13 08:21:15;;;;;;;3.43;3.33;;;;;;;12.22;24.67;100725.53;5075121;28;20190;-76
2022/03/13 08:23:43;;;;;;;5.20;4.70;;;;;;;12.06;25.29;100728.28;5074757;28;20198;-78
2022/03/13 08:26:11;;;;;;;6.03;5.47;;;;;;;12.29;25.38;100721.13;5074810;28;20213;-74
2022/03/13 08:28:38;;;;;;;5.40;4.90;;;;;;;12.42;24.25;100721.34;5074214;28;20688;-75
2022/03/13 08:31:05;;;;;;;5.73;5.10;;;;;;;11.97;24.83;100721.31;5073690;28;20202;-77
2022/03/13 08:33:32;;;;;;;4.77;4.37;;;;;;;12.11;25.37;100711.75;5073461;28;20251;-77
2022/03/13 08:35:58;;;;;;;4.10;3.87;;;;;;;11.98;23.42;100722.16;5073647;28;20222;-72
2022/03/13 08:38:25;;;;;;;3.83;3.63;;;;;;;11.75;23.85;100715.94;5074908;28;20280;-74
2022/03/13 08:40:53;;;;;;;3.50;3.30;;;;;;;11.77;24.39;100704.16;5074813;28;20194;-73
2022/03/13 08:43:21;;;;;;;3.77;3.50;;;;;;;12.27;24.23;100704.50;5074374;28;20207;-76
2022/03/13 08:45:48;;;;;;;4.00;3.70;;;;;;;11.95;24.22;100706.53;5074226;28;20577;-78
2022/03/13 08:48:14;;;;;;;4.07;3.77;;;;;;;11.74;24.95;100696.50;5074316;28;20188;-73
2022/03/13 08:50:41;;;;;;;4.30;4.00;;;;;;;11.82;24.07;100712.44;5074190;28;20677;-74
2022/03/13 08:53:08;;;;;;;3.53;3.33;;;;;;;11.89;24.15;100702.75;5074213;28;20194;-72
2022/03/13 08:55:35;;;;;;;3.87;3.57;;;;;;;12.00;24.05;100704.19;5074428;28;20193;-75
2022/03/13 08:58:03;;;;;;;3.43;3.27;;;;;;;12.03;24.72;100695.81;5073303;28;20194;-82
2022/03/13 09:00:32;;;;;;;4.27;3.97;;;;;;;11.75;24.31;100663.53;5073827;28;20198;-75
2022/03/13 09:02:59;;;;;;;3.80;3.60;;;;;;;11.87;24.44;100688.78;5074468;28;20190;-74
2022/03/13 09:05:26;;;;;;;3.93;3.63;;;;;;;12.31;24.59;100692.47;5073811;28;20595;-71
2022/03/13 09:07:53;;;;;;;3.20;3.00;;;;;;;12.44;24.22;100684.72;5075008;28;20194;-72
2022/03/13 09:10:20;;;;;;;3.50;3.30;;;;;;;12.75;23.34;100682.78;5078201;28;20191;-79
2022/03/13 09:12:46;;;;;;;4.47;4.20;;;;;;;13.22;23.19;100683.31;5094550;28;20231;-80
2022/03/13 09:15:15;;;;;;;7.20;6.63;;;;;;;13.56;22.85;100686.22;5094190;28;20198;-82
2022/03/13 09:17:42;;;;;;;5.60;4.57;;;;;;;13.70;23.42;100680.06;5094186;28;20702;-78
2022/03/13 09:20:11;;;;;;;3.70;3.50;;;;;;;13.66;22.30;100670.75;5094105;28;20199;-74
2022/03/13 09:22:38;;;;;;;3.70;3.43;;;;;;;13.68;22.06;100678.59;5094676;28;20195;-77
2022/03/13 09:25:06;;;;;;;3.23;3.03;;;;;;;13.64;22.89;100667.44;5084498;28;20660;-79
2022/03/13 09:27:34;;;;;;;3.97;3.70;;;;;;;13.83;25.83;100669.53;5073821;28;20199;-73
2022/03/13 09:30:00;;;;;;;5.10;3.63;;;;;;;14.10;25.64;100658.09;5073070;28;20237;-74
2022/03/13 09:32:29;;;;;;;3.50;3.20;;;;;;;14.16;23.90;100668.03;5072676;28;20611;-76
2022/03/13 09:34:55;;;;;;;4.60;4.20;;;;;;;14.38;24.33;100659.00;5073413;28;20282;-79
2022/03/13 09:37:23;;;;;;;13.00;9.40;;;;;;;14.43;21.39;100666.47;5073176;28;20228;-81
2022/03/13 09:39:51;;;;;;;10.60;7.83;;;;;;;14.30;20.82;100669.84;5074123;28;20192;-80
2022/03/13 09:42:18;;;;;;;4.50;4.17;;;;;;;13.88;20.31;100661.75;5073642;28;20202;-80
2022/03/13 09:44:44;;;;;;;3.73;3.53;;;;;;;13.04;21.23;100655.34;5073016;28;20226;-80
2022/03/13 09:47:12;;;;;;;5.07;4.57;;;;;;;12.50;22.44;100643.19;5072977;28;20618;-81
2022/03/13 09:49:41;;;;;;;6.30;5.67;;;;;;;12.55;22.69;100644.31;5084763;28;20270;-77
2022/03/13 09:52:08;;;;;;;5.57;5.17;;;;;;;12.78;22.52;100641.59;5081612;28;20269;-77
2022/03/13 09:54:35;;;;;;;3.93;3.60;;;;;;;12.73;21.85;100644.78;5076887;28;20657;-76
2022/03/13 09:57:03;;;;;;;4.33;3.50;;;;;;;12.99;21.80;100639.88;5074303;28;20254;-76
2022/03/13 09:59:29;;;;;;;3.87;3.57;;;;;;;13.44;21.31;100642.34;5087934;28;20192;-78
2022/03/13 10:01:56;;;;;;;3.63;3.43;;;;;;;13.37;20.46;100644.13;5083232;28;20250;-76
2022/03/13 10:04:23;;;;;;;5.23;4.80;;;;;;;13.30;20.19;100637.84;5072621;28;20235;-75
2022/03/13 10:07:12;;;;;;;5.57;4.37;;;;;;;12.67;21.49;100634.88;5088129;28;20263;-77
2022/03/13 10:09:43;;;;;;;9.43;3.83;;;;;;;12.97;21.36;100628.56;5088401;28;20227;-77
2022/03/13 10:12:12;;;;;;;3.43;3.20;;;;;;;12.99;20.94;100629.22;5073752;28;20186;-75
2022/03/13 10:14:59;;;;;;;3.60;3.30;;;;;;;12.84;20.70;100633.69;5074972;28;20256;-76
2022/03/13 10:17:27;;;;;;;8.67;4.60;;;;;;;13.08;21.83;100617.47;5092319;28;20268;-77
2022/03/13 10:19:54;;;;;;;4.10;3.90;;;;;;;12.79;20.66;100625.41;5092981;28;20286;-76
2022/03/13 10:22:29;;;;;;;4.47;4.13;;;;;;;12.20;20.15;100620.97;5086127;28;20747;-78
2022/03/13 10:24:56;;;;;;;4.40;4.00;;;;;;;12.22;20.88;100618.97;5072912;28;20190;-76
2022/03/13 10:27:23;;;;;;;3.47;3.27;;;;;;;12.36;21.25;100626.16;5072312;28;20251;-76
2022/03/13 10:29:49;;;;;;;4.23;3.83;;;;;;;12.58;20.91;100619.94;5072282;28;20332;-79
2022/03/13 10:32:17;;;;;;;3.37;3.17;;;;;;;12.60;19.22;100617.94;5072671;28;20192;-79
2022/03/13 10:34:54;;;;;;;4.53;3.80;;;;;;;12.23;20.33;100615.28;5070857;28;20558;-75
2022/03/13 10:37:33;;;;;;;3.80;3.60;;;;;;;12.15;20.14;100606.50;5071936;28;20245;-75
2022/03/13 10:40:14;;;;;;;4.10;3.40;;;;;;;11.65;20.67;100615.03;5072645;28;20269;-75
2022/03/13 10:42:43;;;;;;;5.70;4.10;;;;;;;11.56;20.32;100620.53;5072645;28;20193;-74
2022/03/13 10:45:12;;;;;;;4.67;4.33;;;;;;;11.69;20.74;100600.38;5070979;28;20289;-75
2022/03/13 10:47:39;;;;;;;9.47;4.43;;;;;;;12.08;21.58;100603.75;5072174;28;20191;-75
2022/03/13 10:50:07;;;;;;;5.70;5.20;;;;;;;12.21;20.12;100595.97;5071920;28;20194;-73
2022/03/13 10:52:41;;;;;;;3.47;3.27;;;;;;;12.17;19.99;100597.34;5071959;28;20194;-75
2022/03/13 10:55:19;;;;;;;4.80;4.50;;;;;;;12.20;19.82;100594.31;5071505;28;20186;-75
2022/03/13 10:57:51;;;;;;;4.97;4.57;;;;;;;12.30;20.77;100584.25;5071027;28;20228;-74
2022/03/13 11:00:18;;;;;;;6.10;4.60;;;;;;;12.21;21.16;100580.00;5071774;28;20327;-74
2022/03/13 11:02:45;;;;;;;5.27;4.77;;;;;;;12.31;20.57;100585.91;5071656;28;20198;-74
2022/03/13 11:05:12;;;;;;;4.17;3.87;;;;;;;12.26;20.65;100585.63;5072169;28;20271;-74
2022/03/13 11:07:40;;;;;;;7.07;6.40;;;;;;;12.32;20.26;100576.91;5071378;28;20195;-74
2022/03/13 11:10:09;;;;;;;4.30;4.00;;;;;;;12.44;20.44;100580.78;5074276;28;20615;-74
2022/03/13 11:12:38;;;;;;;5.33;4.87;;;;;;;12.51;20.75;100578.22;5091542;28;20641;-72
2022/03/13 11:15:08;;;;;;;4.47;4.17;;;;;;;12.57;20.87;100572.97;5092792;28;20189;-72
2022/03/13 11:17:34;;;;;;;5.10;4.60;;;;;;;12.56;20.75;100566.00;5091511;28;20650;-72
2022/03/13 11:20:03;;;;;;;4.20;3.77;;;;;;;12.68;19.96;100561.88;5091540;28;20673;-73
2022/03/13 11:22:31;;;;;;;10.07;3.53;;;;;;;12.67;19.70;100554.06;5091625;28;20541;-73